Time;durP1;ratioP1;P1;durP2;ratioP2;P2;SDS_P1;SDS_P2;PMS_P1;PMS_P2;Temp;Humidity;BMP_temperature;BMP_pressure;BME280_temperature;BME280_humidity;BME280_pressure;Samples;Min_cycle;Max_cycle;Signal;HPM_P1;HPM_P2
2023/02/06 00:01:49;;;;;;;19.30;9.30;;;;;;;6.78;75.54;102585.03;10247197;28;20180;-60
2023/02/06 00:06:51;;;;;;;21.55;10.38;;;;;;;6.79;75.71;102582.25;10259344;28;20066;-62
2023/02/06 00:11:52;;;;;;;18.33;8.93;;;;;;;6.81;76.25;102593.69;10250101;28;20549;-63
2023/02/06 00:16:53;;;;;;;21.65;9.75;;;;;;;6.89;75.60;102586.09;10255836;28;20530;-62
2023/02/06 00:21:55;;;;;;;16.67;9.25;;;;;;;6.96;75.72;102594.56;10248820;28;20142;-63
2023/02/06 00:26:56;;;;;;;16.60;7.15;;;;;;;6.99;75.66;102602.41;10255123;28;20533;-62
2023/02/06 00:31:57;;;;;;;15.32;7.45;;;;;;;7.00;75.75;102611.28;10252544;28;20050;-62
2023/02/06 00:36:59;;;;;;;16.73;7.97;;;;;;;7.08;76.14;102609.84;10247964;28;20043;-62
2023/02/06 00:42:00;;;;;;;15.48;7.75;;;;;;;7.15;76.42;102613.84;10260499;28;20035;-62
2023/02/06 00:47:02;;;;;;;16.02;7.63;;;;;;;7.08;76.51;102619.69;10250222;28;20125;-61
2023/02/06 00:52:03;;;;;;;15.90;8.15;;;;;;;7.15;75.52;102623.69;10251481;28;20074;-60
2023/02/06 00:57:04;;;;;;;18.30;7.93;;;;;;;7.17;75.93;102616.44;10241320;28;20044;-60
2023/02/06 01:02:06;;;;;;;19.73;9.88;;;;;;;7.23;75.27;102623.22;10235542;28;20058;-61
2023/02/06 01:07:07;;;;;;;15.50;8.73;;;;;;;7.26;75.64;102634.53;10236406;28;20098;-62
2023/02/06 01:12:09;;;;;;;18.63;10.13;;;;;;;7.23;75.03;102637.44;10242390;28;20570;-62
2023/02/06 01:17:10;;;;;;;17.52;9.52;;;;;;;7.17;75.41;102628.91;10242099;28;20057;-62
2023/02/06 01:22:11;;;;;;;18.88;9.23;;;;;;;7.14;75.97;102641.53;10246612;28;20432;-62
2023/02/06 01:27:13;;;;;;;18.08;10.07;;;;;;;7.12;75.55;102643.44;10248790;28;20047;-61
2023/02/06 01:32:14;;;;;;;20.25;10.45;;;;;;;7.11;75.46;102633.72;10242312;28;20090;-62
2023/02/06 01:37:16;;;;;;;20.58;10.43;;;;;;;7.10;76.56;102634.66;10242026;28;20089;-61
2023/02/06 01:42:17;;;;;;;19.27;10.52;;;;;;;7.08;76.23;102635.72;10242932;28;20079;-62
2023/02/06 01:47:18;;;;;;;17.80;9.60;;;;;;;7.03;75.75;102624.44;10231459;28;20131;-62
2023/02/06 01:52:29;;;;;;;17.00;9.70;;;;;;;6.99;75.76;102626.47;10240416;28;20134;-62
2023/02/06 01:57:32;;;;;;;21.02;9.95;;;;;;;7.01;75.60;102626.34;10239231;28;20138;-61
2023/02/06 02:02:37;;;;;;;20.70;10.55;;;;;;;7.00;75.46;102624.66;10244261;28;20051;-60
2023/02/06 02:08:05;;;;;;;20.75;10.95;;;;;;;7.01;76.54;102623.69;10241288;28;20137;-61
2023/02/06 02:13:06;;;;;;;17.27;10.23;;;;;;;7.00;76.36;102619.31;10240466;28;20597;-61
2023/02/06 02:18:26;;;;;;;20.33;11.25;;;;;;;6.97;76.05;102616.81;10240277;28;20079;-60
2023/02/06 02:24:00;;;;;;;20.55;10.93;;;;;;;6.94;76.10;102609.84;10243366;28;20370;-60
2023/02/06 02:29:35;;;;;;;18.92;10.18;;;;;;;6.87;75.75;102606.72;10216408;28;20046;-59
2023/02/06 02:35:01;;;;;;;19.65;10.70;;;;;;;6.81;76.33;102591.03;10233749;28;20427;-59
2023/02/06 02:40:18;;;;;;;19.45;9.52;;;;;;;6.81;76.32;102591.03;10243429;28;20067;-58
2023/02/06 02:45:26;;;;;;;22.38;11.63;;;;;;;6.73;76.07;102583.50;10239755;28;20074;-58
2023/02/06 02:50:29;;;;;;;17.90;9.43;;;;;;;6.66;76.10;102589.34;10243494;28;20051;-58
2023/02/06 02:55:31;;;;;;;16.98;9.45;;;;;;;6.71;76.50;102597.91;10236024;28;20070;-59
2023/02/06 03:01:05;;;;;;;18.58;9.40;;;;;;;6.69;76.56;102600.66;10226864;28;20047;-58
2023/02/06 03:06:42;;;;;;;15.82;9.13;;;;;;;6.68;76.05;102604.31;10239017;28;20071;-58
2023/02/06 03:11:54;;;;;;;15.68;8.60;;;;;;;6.66;76.45;102622.25;10229906;28;20082;-59
2023/02/06 03:17:08;;;;;;;14.57;7.88;;;;;;;6.63;76.01;102625.09;10239328;28;20073;-58
2023/02/06 03:22:13;;;;;;;13.00;6.90;;;;;;;6.66;76.44;102616.06;10233941;28;20131;-60
2023/02/06 03:27:16;;;;;;;11.60;6.82;;;;;;;6.64;76.68;102615.28;10240570;28;20451;-59
2023/02/06 03:32:23;;;;;;;12.90;7.45;;;;;;;6.61;76.19;102612.78;10240046;28;20067;-58
2023/02/06 03:37:26;;;;;;;12.93;5.95;;;;;;;6.59;75.73;102615.56;10244056;28;20098;-59
2023/02/06 03:42:29;;;;;;;12.98;7.05;;;;;;;6.55;75.59;102622.91;10241509;28;20156;-58
2023/02/06 03:47:34;;;;;;;12.10;7.53;;;;;;;6.52;75.16;102615.09;10245326;28;20117;-58
2023/02/06 03:52:39;;;;;;;15.80;7.40;;;;;;;6.54;75.47;102623.88;10239525;28;20098;-58
2023/02/06 03:57:43;;;;;;;11.45;7.03;;;;;;;6.49;75.97;102611.72;10232594;28;20082;-58
2023/02/06 04:02:49;;;;;;;15.43;7.47;;;;;;;6.51;75.29;102624.03;10247450;28;20503;-59
2023/02/06 04:07:51;;;;;;;12.95;7.45;;;;;;;6.48;76.19;102620.72;10253978;28;20094;-58
2023/02/06 04:12:53;;;;;;;11.07;6.88;;;;;;;6.43;76.19;102612.13;10248612;28;20051;-59
2023/02/06 04:17:54;;;;;;;11.90;6.55;;;;;;;6.46;75.46;102609.25;10241979;28;20050;-59
2023/02/06 04:23:01;;;;;;;11.68;6.82;;;;;;;6.47;75.90;102609.16;10237718;28;20059;-59
2023/02/06 04:28:03;;;;;;;13.73;7.93;;;;;;;6.53;75.33;102623.94;10244126;28;20083;-59
2023/02/06 04:33:04;;;;;;;15.35;8.18;;;;;;;6.53;75.53;102624.81;10236760;28;20086;-59
2023/02/06 04:38:06;;;;;;;14.98;7.60;;;;;;;6.50;75.88;102624.16;10243717;28;20138;-61
2023/02/06 04:43:07;;;;;;;17.58;8.57;;;;;;;6.51;75.83;102632.06;10233068;28;20075;-59
2023/02/06 04:48:09;;;;;;;13.73;7.45;;;;;;;6.47;75.21;102629.66;10243259;28;20130;-59
2023/02/06 04:53:10;;;;;;;15.25;7.95;;;;;;;6.24;75.68;102618.56;10247501;28;20507;-59
2023/02/06 04:58:11;;;;;;;13.50;7.55;;;;;;;5.80;76.72;102631.81;10253531;28;20110;-59
2023/02/06 05:03:13;;;;;;;17.25;8.63;;;;;;;5.72;77.75;102642.91;10248671;28;20475;-59
2023/02/06 05:08:14;;;;;;;14.95;8.18;;;;;;;5.65;77.42;102641.56;10243991;28;20094;-57
2023/02/06 05:13:15;;;;;;;17.98;9.88;;;;;;;5.76;77.04;102645.31;10238117;28;20142;-57
2023/02/06 05:18:17;;;;;;;14.52;7.32;;;;;;;5.72;77.42;102634.91;10244385;28;20507;-58
2023/02/06 05:23:18;;;;;;;17.55;9.02;;;;;;;5.80;77.49;102630.00;10243613;28;20525;-58
2023/02/06 05:28:20;;;;;;;15.93;8.93;;;;;;;5.87;77.39;102635.84;10238550;28;20134;-56
2023/02/06 05:33:22;;;;;;;21.08;10.75;;;;;;;5.92;77.34;102637.31;10230687;28;20129;-58
2023/02/06 05:38:23;;;;;;;18.38;8.88;;;;;;;5.92;77.24;102628.41;10243989;28;20055;-58
2023/02/06 05:43:25;;;;;;;19.98;9.63;;;;;;;5.94;76.88;102618.50;10229347;28;20114;-58
2023/02/06 05:48:29;;;;;;;19.48;9.85;;;;;;;5.97;77.36;102622.88;10229332;28;20168;-57
2023/02/06 05:53:30;;;;;;;18.27;8.75;;;;;;;5.97;77.06;102623.72;10215056;28;20058;-57
2023/02/06 05:58:32;;;;;;;14.73;8.02;;;;;;;5.96;77.08;102624.66;10235614;28;20063;-57
2023/02/06 06:03:33;;;;;;;19.27;9.05;;;;;;;5.92;76.50;102609.75;10232698;28;20443;-57
2023/02/06 06:08:35;;;;;;;18.30;9.57;;;;;;;5.70;77.05;102605.66;10239478;28;20062;-57
2023/02/06 06:13:36;;;;;;;14.00;7.60;;;;;;;5.48;77.33;102611.34;10245180;28;20085;-58
2023/02/06 06:18:38;;;;;;;17.10;8.95;;;;;;;5.40;77.29;102610.94;10210113;28;20393;-58
2023/02/06 06:23:39;;;;;;;16.13;8.18;;;;;;;5.27;77.94;102600.09;10238202;28;20043;-58
2023/02/06 06:28:40;;;;;;;16.30;9.25;;;;;;;5.30;78.20;102612.41;10238853;28;20121;-58
2023/02/06 06:33:42;;;;;;;21.05;8.98;;;;;;;5.39;77.59;102611.88;10236861;28;20125;-58
2023/02/06 06:38:44;;;;;;;18.17;7.10;;;;;;;5.40;78.11;102618.06;10238942;28;20463;-59
2023/02/06 06:43:45;;;;;;;12.98;5.78;;;;;;;5.52;77.91;102626.22;10235377;28;20105;-58
2023/02/06 06:48:47;;;;;;;8.60;3.60;;;;;;;5.53;77.35;102611.97;10242170;28;20179;-59
2023/02/06 06:53:48;;;;;;;4.97;2.70;;;;;;;5.56;77.27;102624.25;10239513;28;20563;-61
2023/02/06 06:58:50;;;;;;;5.15;2.40;;;;;;;5.59;77.13;102623.22;10244219;28;20133;-60
2023/02/06 07:03:51;;;;;;;5.28;1.30;;;;;;;5.54;77.07;102628.81;10239106;28;20047;-61
2023/02/06 07:08:52;;;;;;;2.17;0.98;;;;;;;5.50;76.81;102621.94;10244150;28;20047;-60
2023/02/06 07:13:54;;;;;;;2.35;1.33;;;;;;;5.51;76.48;102631.66;10241952;28;20141;-60
2023/02/06 07:18:55;;;;;;;3.80;1.23;;;;;;;5.45;76.59;102632.00;10242080;28;20048;-61
2023/02/06 07:23:57;;;;;;;3.42;0.82;;;;;;;5.39;76.59;102630.56;10239326;28;20047;-61
2023/02/06 07:28:58;;;;;;;6.30;1.20;;;;;;;5.32;76.83;102638.03;10250464;28;20091;-61
2023/02/06 07:34:01;;;;;;;1.90;0.90;;;;;;;5.30;76.64;102642.59;10243204;28;20133;-60
2023/02/06 07:39:03;;;;;;;4.03;1.00;;;;;;;5.36;76.54;102631.56;10254420;28;20057;-61
2023/02/06 07:44:05;;;;;;;3.65;1.27;;;;;;;5.40;76.87;102629.59;10246725;28;20050;-59
2023/02/06 07:49:07;;;;;;;5.47;1.38;;;;;;;5.34;76.46;102624.59;10251797;28;20055;-60
2023/02/06 07:54:09;;;;;;;3.75;1.55;;;;;;;5.33;76.71;102631.75;10241833;28;20071;-60
2023/02/06 07:59:10;;;;;;;2.42;1.00;;;;;;;5.35;76.89;102626.31;10250165;28;20418;-61
2023/02/06 08:04:12;;;;;;;3.80;1.05;;;;;;;5.28;76.55;102633.81;10253302;28;20479;-61
2023/02/06 08:09:17;;;;;;;2.17;1.05;;;;;;;5.28;76.22;102644.47;10248245;28;20043;-61
2023/02/06 08:14:18;;;;;;;1.95;0.80;;;;;;;5.28;76.42;102638.28;10251288;28;20497;-61
2023/02/06 08:19:20;;;;;;;2.85;1.40;;;;;;;5.30;76.78;102647.06;10255034;28;20602;-60
2023/02/06 08:24:21;;;;;;;5.57;1.00;;;;;;;5.21;76.27;102635.06;10258405;28;20143;-61
2023/02/06 08:29:23;;;;;;;4.10;1.27;;;;;;;5.20;76.85;102624.53;10247240;28;20055;-60
2023/02/06 08:34:24;;;;;;;4.18;1.25;;;;;;;5.24;76.90;102621.59;10247085;28;20107;-60
2023/02/06 08:39:26;;;;;;;4.47;1.67;;;;;;;5.19;76.18;102628.97;10251281;28;20079;-61
2023/02/06 08:44:27;;;;;;;3.50;1.00;;;;;;;5.23;76.76;102635.00;10246988;28;20060;-61
2023/02/06 08:49:29;;;;;;;5.07;1.63;;;;;;;5.34;76.50;102633.47;10250207;28;20447;-61
2023/02/06 08:54:31;;;;;;;1.85;0.80;;;;;;;5.43;76.66;102636.56;10241739;28;20071;-61
2023/02/06 08:59:35;;;;;;;2.55;1.20;;;;;;;5.38;77.09;102631.50;10246648;28;20059;-61
2023/02/06 09:04:37;;;;;;;2.45;1.10;;;;;;;5.46;76.67;102631.06;10247073;28;20386;-60
2023/02/06 09:09:39;;;;;;;1.63;0.95;;;;;;;5.59;76.58;102633.88;10244833;28;20403;-61
2023/02/06 09:14:41;;;;;;;2.95;1.27;;;;;;;5.69;76.28;102641.28;10248641;28;20046;-62
2023/02/06 09:19:42;;;;;;;4.20;1.27;;;;;;;5.85;75.80;102638.59;10242715;28;20054;-63
2023/02/06 09:24:43;;;;;;;4.78;1.60;;;;;;;5.95;76.02;102634.47;10242362;28;20146;-63
2023/02/06 09:29:46;;;;;;;8.70;1.63;;;;;;;6.00;75.69;102641.34;10218727;28;20048;-64
2023/02/06 09:34:48;;;;;;;5.57;1.73;;;;;;;6.09;75.15;102633.69;10241794;28;20043;-64
2023/02/06 09:39:49;;;;;;;6.50;2.13;;;;;;;6.17;74.94;102635.03;10237183;28;20055;-63
2023/02/06 09:45:01;;;;;;;5.35;1.15;;;;;;;6.21;74.69;102633.91;10239201;28;20117;-64
2023/02/06 09:50:09;;;;;;;5.40;1.23;;;;;;;6.19;74.64;102633.16;10240233;28;20044;-65
2023/02/06 09:55:27;;;;;;;3.90;1.40;;;;;;;6.27;74.21;102622.84;10247612;28;20067;-64
2023/02/06 10:00:38;;;;;;;4.13;2.42;;;;;;;6.47;73.67;102624.31;10240730;28;20047;-64
2023/02/06 10:06:08;;;;;;;7.25;1.27;;;;;;;6.50;74.14;102624.16;10248589;28;20114;-65
2023/02/06 10:11:38;;;;;;;4.07;1.83;;;;;;;6.33;73.99;102607.31;10240604;28;20051;-65
2023/02/06 10:16:59;;;;;;;4.78;1.27;;;;;;;6.35;73.54;102605.41;10249094;28;20078;-65
2023/02/06 10:22:08;;;;;;;5.05;1.50;;;;;;;6.57;73.57;102592.56;10243059;28;20082;-66
2023/02/06 10:27:12;;;;;;;5.78;1.95;;;;;;;6.63;72.85;102586.84;10244667;28;20142;-66
2023/02/06 10:32:36;;;;;;;6.88;1.83;;;;;;;6.75;72.32;102594.97;10219430;28;20380;-65
2023/02/06 10:37:51;;;;;;;6.30;1.75;;;;;;;6.99;72.33;102570.31;10242302;28;20051;-65
2023/02/06 10:43:28;;;;;;;5.18;1.63;;;;;;;7.06;72.09;102574.31;10245370;28;20134;-65
2023/02/06 10:48:41;;;;;;;6.07;2.42;;;;;;;7.26;72.11;102564.13;10249894;28;20054;-65
2023/02/06 10:53:49;;;;;;;7.10;2.10;;;;;;;7.39;71.95;102553.50;10247854;28;20131;-63
2023/02/06 10:59:23;;;;;;;5.57;1.67;;;;;;;7.24;72.20;102544.66;10243486;28;20442;-66
2023/02/06 11:04:33;;;;;;;3.78;1.60;;;;;;;7.10;71.86;102548.22;10244642;28;20771;-68
2023/02/06 11:09:34;;;;;;;3.67;1.67;;;;;;;7.11;70.89;102544.63;10251697;28;20051;-66
2023/02/06 11:14:39;;;;;;;8.63;2.83;;;;;;;7.25;70.90;102530.34;10241271;28;20090;-66
2023/02/06 11:19:43;;;;;;;5.40;1.55;;;;;;;7.33;70.70;102517.31;10236952;28;20134;-67
2023/02/06 11:25:06;;;;;;;2.80;1.45;;;;;;;7.27;70.27;102512.38;10238488;28;20110;-67
2023/02/06 11:30:24;;;;;;;4.40;1.77;;;;;;;7.43;70.48;102505.03;10234848;28;20051;-66
2023/02/06 11:35:30;;;;;;;3.92;1.50;;;;;;;7.47;70.35;102493.16;10246232;28;20048;-69
2023/02/06 11:40:31;;;;;;;8.80;2.60;;;;;;;7.61;69.83;102488.72;10244208;28;20506;-67
2023/02/06 11:45:33;;;;;;;4.82;2.00;;;;;;;7.74;70.07;102484.22;10247615;28;20062;-61
2023/02/06 11:50:36;;;;;;;4.85;1.88;;;;;;;7.78;69.77;102484.88;10246695;28;20071;-66
2023/02/06 11:55:38;;;;;;;5.53;1.83;;;;;;;7.65;69.84;102485.72;10234666;28;20051;-66
2023/02/06 12:00:55;;;;;;;4.88;1.98;;;;;;;7.73;69.52;102472.66;10234599;28;20061;-67
2023/02/06 12:06:02;;;;;;;5.97;1.58;;;;;;;7.83;69.35;102466.69;10235614;28;20059;-67
2023/02/06 12:11:12;;;;;;;6.03;1.70;;;;;;;7.95;68.81;102471.19;10240003;28;20070;-66
2023/02/06 12:16:15;;;;;;;3.85;1.38;;;;;;;7.95;68.61;102461.31;10245239;28;20310;-66
2023/02/06 12:21:26;;;;;;;6.10;1.70;;;;;;;8.13;68.50;102451.13;10244343;28;20510;-67
2023/02/06 12:26:29;;;;;;;10.95;2.25;;;;;;;8.25;68.54;102452.09;10246119;28;20059;-67
2023/02/06 12:31:37;;;;;;;3.30;1.45;;;;;;;8.38;67.77;102452.09;10237626;28;20051;-65
2023/02/06 12:36:53;;;;;;;7.07;1.40;;;;;;;8.40;68.27;102452.84;10247173;28;20498;-65
2023/02/06 12:42:19;;;;;;;6.32;2.22;;;;;;;8.50;68.02;102442.34;10245643;28;20086;-64
2023/02/06 12:47:33;;;;;;;6.25;0.85;;;;;;;8.59;67.96;102439.00;10246844;28;20055;-64
2023/02/06 12:52:45;;;;;;;6.07;1.55;;;;;;;8.67;67.48;102417.84;10235466;28;20078;-65
2023/02/06 12:57:47;;;;;;;3.55;1.63;;;;;;;8.76;67.44;102418.16;10239518;28;20146;-66
2023/02/06 13:03:02;;;;;;;4.82;2.47;;;;;;;8.79;66.77;102417.91;10223345;28;20043;-65
2023/02/06 13:08:08;;;;;;;7.85;1.10;;;;;;;8.71;67.24;102421.19;10242759;28;20057;-65
2023/02/06 13:13:28;;;;;;;5.28;1.27;;;;;;;8.82;66.81;102412.31;10233114;28;20047;-64
2023/02/06 13:18:35;;;;;;;4.30;1.10;;;;;;;8.88;66.28;102415.41;10240390;28;20138;-64
2023/02/06 13:23:46;;;;;;;;;;;;;;;8.91;68.17;102417.03;10240406;28;20071;-65
2023/02/06 13:28:56;;;;;;;5.00;1.30;;;;;;;9.02;66.86;102417.06;10241237;28;19930;-65
2023/02/06 13:34:00;;;;;;;5.47;1.15;;;;;;;9.11;66.62;102394.91;10232533;28;20498;-65
2023/02/06 13:39:20;;;;;;;7.25;1.10;;;;;;;9.15;66.05;102408.97;10235949;28;20059;-65
2023/02/06 13:44:28;;;;;;;4.38;1.13;;;;;;;9.27;65.96;102408.03;10243922;28;20079;-66
2023/02/06 13:50:00;;;;;;;4.20;1.27;;;;;;;9.32;65.54;102407.66;10224627;28;20147;-65
2023/02/06 13:55:17;;;;;;;4.68;1.65;;;;;;;9.43;65.29;102409.53;10237417;28;20071;-64
2023/02/06 14:00:25;;;;;;;4.35;1.02;;;;;;;9.45;65.32;102411.13;10214193;28;20119;-67
2023/02/06 14:06:06;;;;;;;2.55;0.90;;;;;;;9.38;65.55;102414.41;10246819;28;20047;-65
2023/02/06 14:11:22;;;;;;;7.50;0.93;;;;;;;9.43;64.86;102407.69;10250426;28;20046;-65
2023/02/06 14:16:51;;;;;;;1.70;0.60;;;;;;;9.43;64.60;102407.69;10233908;28;20127;-65
2023/02/06 14:22:08;;;;;;;3.70;0.80;;;;;;;9.48;64.79;102399.31;10234016;28;20051;-65
2023/02/06 14:27:47;;;;;;;3.23;0.87;;;;;;;9.59;64.32;102399.31;10237030;28;20059;-65
2023/02/06 14:33:00;;;;;;;7.45;0.70;;;;;;;9.63;63.94;102402.63;10237839;28;20048;-64
2023/02/06 14:38:15;;;;;;;6.47;1.00;;;;;;;9.63;63.76;102402.63;10219731;28;20122;-65
2023/02/06 14:43:21;;;;;;;2.35;0.40;;;;;;;9.54;63.58;102404.22;10232568;28;20043;-66
2023/02/06 14:48:24;;;;;;;4.28;0.80;;;;;;;9.38;63.51;102401.84;10233904;28;20488;-65
2023/02/06 14:53:31;;;;;;;3.45;0.70;;;;;;;9.29;63.06;102405.22;10233663;28;20500;-65
2023/02/06 14:58:32;;;;;;;4.45;0.80;;;;;;;9.23;62.94;102393.13;10225464;28;20118;-64
2023/02/06 15:03:34;;;;;;;5.82;0.70;;;;;;;9.10;63.46;102389.66;10237244;28;20126;-64
2023/02/06 15:08:35;;;;;;;6.60;0.77;;;;;;;9.07;62.93;102385.38;10236682;28;20048;-64
2023/02/06 15:13:37;;;;;;;2.40;0.52;;;;;;;9.06;62.97;102382.81;10233039;28;20557;-65
2023/02/06 15:18:38;;;;;;;4.93;0.50;;;;;;;8.96;62.51;102382.66;10236783;28;20054;-66
2023/02/06 15:24:07;;;;;;;3.05;0.40;;;;;;;8.86;62.81;102374.44;10232170;28;20046;-64
2023/02/06 15:29:17;;;;;;;5.47;0.50;;;;;;;8.83;62.27;102379.19;10218333;28;20087;-63
2023/02/06 15:34:22;;;;;;;4.63;0.65;;;;;;;8.69;62.96;102377.53;10231569;28;20399;-65
2023/02/06 15:39:25;;;;;;;6.47;0.82;;;;;;;8.60;62.89;102384.41;10247091;28;20063;-65
2023/02/06 15:44:34;;;;;;;4.15;0.88;;;;;;;8.53;62.76;102385.81;10216779;28;20215;-65
2023/02/06 15:49:40;;;;;;;4.40;0.70;;;;;;;8.42;62.66;102394.66;10234358;28;20059;-65
2023/02/06 15:54:43;;;;;;;5.53;0.60;;;;;;;8.31;62.94;102395.41;10241129;28;20113;-65
2023/02/06 15:59:45;;;;;;;3.55;0.50;;;;;;;8.15;63.28;102394.78;10235059;28;20061;-65
2023/02/06 16:04:51;;;;;;;7.30;1.80;;;;;;;8.03;63.78;102395.66;10238276;28;20133;-64
2023/02/06 16:10:11;;;;;;;7.68;1.40;;;;;;;7.88;64.05;102405.66;10243554;28;20566;-64
2023/02/06 16:15:25;;;;;;;7.35;1.45;;;;;;;7.74;63.90;102403.91;10242473;28;20134;-65
2023/02/06 16:20:39;;;;;;;8.05;1.75;;;;;;;7.63;63.68;102411.84;10247994;28;20407;-65
2023/02/06 16:25:41;;;;;;;3.05;0.82;;;;;;;7.61;63.75;102419.13;10247392;28;20052;-65
2023/02/06 16:30:53;;;;;;;7.82;1.33;;;;;;;7.49;63.90;102420.81;10242263;28;20059;-64
2023/02/06 16:35:54;;;;;;;3.88;0.90;;;;;;;7.39;64.14;102425.94;10238971;28;20121;-65
2023/02/06 16:40:56;;;;;;;6.00;0.88;;;;;;;7.31;63.03;102430.94;10251613;28;20095;-64
2023/02/06 16:46:00;;;;;;;5.53;0.70;;;;;;;7.23;63.41;102428.78;10233819;28;20526;-65
2023/02/06 16:51:04;;;;;;;6.38;1.75;;;;;;;7.20;63.14;102439.69;10247338;28;20363;-65
2023/02/06 16:56:10;;;;;;;5.07;1.33;;;;;;;7.13;63.57;102435.72;10244528;28;20141;-64
2023/02/06 17:01:24;;;;;;;6.18;0.88;;;;;;;7.08;63.91;102436.00;10250929;28;20043;-66
2023/02/06 17:06:27;;;;;;;8.57;1.40;;;;;;;7.08;64.48;102436.00;10243909;28;20094;-65
2023/02/06 17:11:30;;;;;;;6.63;1.20;;;;;;;7.07;64.67;102436.09;10244569;28;20059;-65
2023/02/06 17:16:32;;;;;;;5.00;1.10;;;;;;;7.03;64.79;102439.94;10247037;28;20070;-65
2023/02/06 17:21:33;;;;;;;5.88;1.10;;;;;;;7.06;63.85;102439.75;10244300;28;20058;-65
2023/02/06 17:26:35;;;;;;;4.80;1.20;;;;;;;7.01;64.99;102434.72;10241450;28;20059;-64
2023/02/06 17:31:36;;;;;;;5.28;1.90;;;;;;;6.95;64.28;102444.00;10241436;28;20159;-65
2023/02/06 17:36:39;;;;;;;11.32;2.38;;;;;;;6.90;65.02;102443.41;10242906;28;20062;-65
2023/02/06 17:41:41;;;;;;;11.10;1.60;;;;;;;6.92;64.81;102441.50;10237933;28;20577;-66
2023/02/06 17:46:47;;;;;;;5.68;1.70;;;;;;;6.94;64.67;102441.41;10246718;28;20071;-66
2023/02/06 17:51:50;;;;;;;7.00;1.73;;;;;;;6.90;65.36;102439.91;10235458;28;20079;-65
2023/02/06 17:56:52;;;;;;;6.85;1.40;;;;;;;6.90;65.40;102440.75;10241970;28;20082;-66
2023/02/06 18:01:53;;;;;;;7.32;1.60;;;;;;;6.94;65.19;102450.28;10243068;28;20235;-62
2023/02/06 18:06:55;;;;;;;10.43;3.88;;;;;;;6.99;65.48;102452.69;10233349;28;20475;-60
2023/02/06 18:11:56;;;;;;;9.15;2.05;;;;;;;6.97;64.94;102448.38;10229380;28;20550;-61
2023/02/06 18:16:57;;;;;;;10.63;3.13;;;;;;;6.93;65.20;102456.59;10236858;28;20085;-60
2023/02/06 18:21:59;;;;;;;6.93;2.72;;;;;;;6.87;65.77;102459.69;10254069;28;20051;-62
2023/02/06 18:27:02;;;;;;;4.97;1.95;;;;;;;6.82;65.93;102461.78;10238589;28;20087;-60
2023/02/06 18:32:03;;;;;;;9.65;1.77;;;;;;;6.80;66.18;102454.81;10247277;28;20058;-62
2023/02/06 18:37:06;;;;;;;11.63;1.77;;;;;;;6.70;65.58;102454.56;10242634;28;20099;-64
2023/02/06 18:47:30;;;;;;;5.90;2.67;;;;;;;6.54;64.90;102460.03;10234079;28;20052;-62
2023/02/06 18:52:32;;;;;;;7.55;1.63;;;;;;;6.46;65.44;102457.84;10244465;28;20047;-62
2023/02/06 18:57:34;;;;;;;6.72;2.25;;;;;;;6.21;65.82;102449.66;10239525;28;20110;-62
2023/02/06 19:02:35;;;;;;;5.95;2.38;;;;;;;6.11;65.23;102455.56;10241569;28;20054;-64
2023/02/06 19:07:37;;;;;;;4.97;1.35;;;;;;;5.92;65.46;102458.47;10206848;28;20051;-62
2023/02/06 19:12:38;;;;;;;4.07;1.10;;;;;;;5.76;65.22;102457.66;10243246;28;20075;-61
2023/02/06 19:17:40;;;;;;;4.43;1.13;;;;;;;5.61;65.52;102456.78;10244906;28;20075;-61
2023/02/06 19:22:42;;;;;;;5.15;1.55;;;;;;;5.46;65.51;102465.69;10232233;28;20115;-61
2023/02/06 19:27:43;;;;;;;4.07;1.83;;;;;;;5.33;66.09;102477.09;10233846;28;20060;-61
2023/02/06 19:32:47;;;;;;;4.60;1.83;;;;;;;5.27;66.14;102498.78;10247721;28;20067;-61
2023/02/06 19:37:50;;;;;;;6.15;2.53;;;;;;;5.15;66.31;102511.00;10249175;28;20105;-61
2023/02/06 19:42:51;;;;;;;8.60;2.13;;;;;;;5.05;66.10;102540.91;10228035;28;20759;-61
2023/02/06 19:47:53;;;;;;;9.70;4.03;;;;;;;4.90;66.27;102555.97;10235232;28;20542;-62
2023/02/06 19:52:55;;;;;;;5.55;2.75;;;;;;;4.88;66.56;102568.50;10243884;28;20082;-61
2023/02/06 19:57:57;;;;;;;5.20;2.65;;;;;;;4.76;66.45;102584.22;10251023;28;20114;-61
2023/02/06 20:02:58;;;;;;;7.20;2.95;;;;;;;4.75;66.70;102576.31;10257616;28;20106;-62
2023/02/06 20:07:59;;;;;;;7.97;3.40;;;;;;;4.61;67.16;102574.38;10248225;28;20075;-60
2023/02/06 20:13:01;;;;;;;4.38;2.47;;;;;;;4.55;67.31;102575.56;10241505;28;20058;-61
2023/02/06 20:18:02;;;;;;;4.97;2.28;;;;;;;4.55;67.21;102580.88;10247076;28;20051;-60
2023/02/06 20:23:05;;;;;;;4.00;1.88;;;;;;;4.52;67.07;102577.53;10246262;28;20090;-61
2023/02/06 20:28:07;;;;;;;8.55;2.17;;;;;;;4.47;67.20;102566.28;10238607;28;20142;-61
2023/02/06 20:33:08;;;;;;;5.45;2.28;;;;;;;4.45;66.92;102563.69;10245168;28;20133;-60
2023/02/06 20:38:10;;;;;;;3.50;1.80;;;;;;;4.41;67.26;102555.94;10235880;28;20201;-61
2023/02/06 20:43:11;;;;;;;5.50;2.33;;;;;;;4.38;66.79;102551.63;10243826;28;20137;-61
2023/02/06 20:48:12;;;;;;;5.18;2.08;;;;;;;4.37;66.89;102566.75;10250327;28;20074;-61
2023/02/06 20:53:14;;;;;;;3.45;2.03;;;;;;;4.44;66.68;102567.28;10237845;28;20435;-60
2023/02/06 20:58:15;;;;;;;3.97;1.67;;;;;;;4.39;66.76;102558.69;10244340;28;20051;-62
2023/02/06 21:03:16;;;;;;;4.45;1.95;;;;;;;4.47;66.45;102555.63;10235426;28;20053;-60
2023/02/06 21:08:18;;;;;;;5.15;1.75;;;;;;;4.27;66.53;102541.56;10246398;28;20059;-62
2023/02/06 21:13:19;;;;;;;4.53;2.35;;;;;;;4.20;66.89;102542.81;10253151;28;20492;-61
2023/02/06 21:18:22;;;;;;;3.33;1.90;;;;;;;4.14;66.71;102541.31;10244397;28;20089;-61
2023/02/06 21:23:24;;;;;;;6.35;2.42;;;;;;;4.05;66.33;102549.81;10248356;28;20083;-61
2023/02/06 21:28:25;;;;;;;3.53;1.90;;;;;;;4.00;66.93;102546.50;10242098;28;20047;-62
2023/02/06 21:33:26;;;;;;;5.13;2.10;;;;;;;3.95;66.71;102559.22;10242345;28;20075;-61
2023/02/06 21:38:28;;;;;;;5.28;2.00;;;;;;;3.96;66.93;102576.88;10244254;28;20059;-62
2023/02/06 21:43:30;;;;;;;3.97;2.30;;;;;;;4.02;66.57;102551.75;10236980;28;20450;-61
2023/02/06 21:48:33;;;;;;;4.80;2.42;;;;;;;4.04;67.02;102565.84;10237366;28;20057;-61
2023/02/06 21:53:34;;;;;;;5.22;2.05;;;;;;;4.08;67.07;102570.06;10246806;28;20142;-60
2023/02/06 21:58:36;;;;;;;2.85;1.83;;;;;;;4.17;66.90;102569.59;10249478;28;20051;-62
2023/02/06 22:03:37;;;;;;;4.32;1.75;;;;;;;4.25;67.13;102563.88;10242790;28;20430;-60
2023/02/06 22:08:41;;;;;;;2.80;1.33;;;;;;;4.31;67.14;102555.56;10231686;28;20081;-61
2023/02/06 22:13:43;;;;;;;2.63;1.85;;;;;;;4.32;66.67;102549.28;10245518;28;20047;-61
2023/02/06 22:18:45;;;;;;;3.85;1.30;;;;;;;4.39;66.88;102565.81;10243222;28;20055;-60
2023/02/06 22:23:48;;;;;;;3.05;1.70;;;;;;;4.53;66.63;102588.09;10244656;28;20051;-60
2023/02/06 22:28:50;;;;;;;3.47;1.67;;;;;;;4.59;66.39;102578.06;10246921;28;20058;-60
2023/02/06 22:33:52;;;;;;;1.52;0.93;;;;;;;4.62;66.69;102577.91;10242682;28;20051;-60
2023/02/06 22:39:00;;;;;;;3.60;1.30;;;;;;;4.63;66.26;102571.63;10242504;28;20083;-61
2023/02/06 22:44:01;;;;;;;1.45;1.00;;;;;;;4.67;66.32;102581.19;10236839;28;20097;-61
2023/02/06 22:49:07;;;;;;;1.98;1.10;;;;;;;4.65;66.53;102578.59;10240342;28;20079;-60
2023/02/06 22:54:11;;;;;;;1.35;0.77;;;;;;;4.63;66.42;102572.50;10246241;28;20562;-61
2023/02/06 22:59:22;;;;;;;2.80;0.80;;;;;;;4.60;66.14;102577.13;10237145;28;20563;-60
2023/02/06 23:04:33;;;;;;;1.27;0.98;;;;;;;4.60;66.25;102559.34;10223132;28;20054;-61
2023/02/06 23:09:36;;;;;;;1.90;0.82;;;;;;;4.59;66.08;102568.28;10249759;28;20082;-61
2023/02/06 23:14:37;;;;;;;1.67;0.80;;;;;;;4.55;65.97;102577.38;10246630;28;20462;-60
2023/02/06 23:19:39;;;;;;;1.75;0.60;;;;;;;4.60;66.06;102572.69;10241855;28;20047;-60
2023/02/06 23:24:40;;;;;;;1.52;0.60;;;;;;;4.63;65.94;102577.81;10241915;28;20131;-62
2023/02/06 23:29:42;;;;;;;1.58;0.60;;;;;;;4.62;66.05;102585.88;10249209;28;20047;-61
2023/02/06 23:34:43;;;;;;;1.00;0.57;;;;;;;4.64;65.74;102573.34;10245578;28;20063;-61
2023/02/06 23:39:44;;;;;;;1.00;0.60;;;;;;;4.65;65.77;102583.06;10239171;28;20130;-61